sensor_id;sensor_type;location;lat;lon;timestamp;P1;durP1;ratioP1;P2;durP2;ratioP2
8058;SDS011;4072;42.668;23.396;2022-08-24T00:00:38;11.93;;;6.23;;
8058;SDS011;4072;42.668;23.396;2022-08-24T00:03:06;11.70;;;6.97;;
8058;SDS011;4072;42.668;23.396;2022-08-24T00:05:37;6.60;;;5.37;;
8058;SDS011;4072;42.668;23.396;2022-08-24T00:08:05;6.97;;;6.30;;
8058;SDS011;4072;42.668;23.396;2022-08-24T00:10:33;7.77;;;5.93;;
8058;SDS011;4072;42.668;23.396;2022-08-24T00:13:01;8.03;;;6.93;;
8058;SDS011;4072;42.668;23.396;2022-08-24T00:15:31;6.93;;;5.87;;
8058;SDS011;4072;42.668;23.396;2022-08-24T00:17:59;11.20;;;6.50;;
8058;SDS011;4072;42.668;23.396;2022-08-24T00:20:28;8.87;;;6.40;;
8058;SDS011;4072;42.668;23.396;2022-08-24T00:22:57;9.20;;;6.57;;
8058;SDS011;4072;42.668;23.396;2022-08-24T00:25:25;7.07;;;6.37;;
8058;SDS011;4072;42.668;23.396;2022-08-24T00:27:54;8.10;;;6.60;;
8058;SDS011;4072;42.668;23.396;2022-08-24T00:30:22;6.63;;;6.03;;
8058;SDS011;4072;42.668;23.396;2022-08-24T00:32:51;7.43;;;6.83;;
8058;SDS011;4072;42.668;23.396;2022-08-24T00:35:20;8.77;;;6.90;;
8058;SDS011;4072;42.668;23.396;2022-08-24T00:37:49;8.83;;;7.40;;
8058;SDS011;4072;42.668;23.396;2022-08-24T00:40:18;11.80;;;8.47;;
8058;SDS011;4072;42.668;23.396;2022-08-24T00:42:47;11.87;;;8.23;;
8058;SDS011;4072;42.668;23.396;2022-08-24T00:45:19;10.93;;;9.33;;
8058;SDS011;4072;42.668;23.396;2022-08-24T00:47:52;11.80;;;9.83;;
8058;SDS011;4072;42.668;23.396;2022-08-24T00:50:22;10.77;;;9.70;;
8058;SDS011;4072;42.668;23.396;2022-08-24T00:52:52;13.67;;;9.53;;
8058;SDS011;4072;42.668;23.396;2022-08-24T00:55:25;12.17;;;9.97;;
8058;SDS011;4072;42.668;23.396;2022-08-24T00:57:55;11.03;;;9.83;;
8058;SDS011;4072;42.668;23.396;2022-08-24T01:00:27;11.37;;;10.17;;
8058;SDS011;4072;42.668;23.396;2022-08-24T01:02:58;11.63;;;10.40;;
8058;SDS011;4072;42.668;23.396;2022-08-24T01:05:30;15.93;;;10.20;;
8058;SDS011;4072;42.668;23.396;2022-08-24T01:07:58;12.90;;;9.90;;
8058;SDS011;4072;42.668;23.396;2022-08-24T01:10:28;12.83;;;10.57;;
8058;SDS011;4072;42.668;23.396;2022-08-24T01:12:57;12.13;;;10.87;;
8058;SDS011;4072;42.668;23.396;2022-08-24T01:15:27;18.17;;;10.90;;
8058;SDS011;4072;42.668;23.396;2022-08-24T01:17:55;13.67;;;11.13;;
8058;SDS011;4072;42.668;23.396;2022-08-24T01:20:43;11.47;;;10.27;;
8058;SDS011;4072;42.668;23.396;2022-08-24T01:23:12;13.10;;;11.40;;
8058;SDS011;4072;42.668;23.396;2022-08-24T01:25:44;12.47;;;10.70;;
8058;SDS011;4072;42.668;23.396;2022-08-24T01:28:14;12.83;;;11.27;;
8058;SDS011;4072;42.668;23.396;2022-08-24T01:30:52;12.17;;;10.93;;
8058;SDS011;4072;42.668;23.396;2022-08-24T01:33:21;14.10;;;11.30;;
8058;SDS011;4072;42.668;23.396;2022-08-24T01:35:49;11.80;;;10.53;;
8058;SDS011;4072;42.668;23.396;2022-08-24T01:38:21;14.77;;;11.53;;
8058;SDS011;4072;42.668;23.396;2022-08-24T01:40:54;16.03;;;10.80;;
8058;SDS011;4072;42.668;23.396;2022-08-24T01:43:23;12.03;;;10.70;;
8058;SDS011;4072;42.668;23.396;2022-08-24T01:45:51;13.07;;;11.53;;
8058;SDS011;4072;42.668;23.396;2022-08-24T01:48:19;13.03;;;11.37;;
8058;SDS011;4072;42.668;23.396;2022-08-24T01:50:48;11.97;;;10.67;;
8058;SDS011;4072;42.668;23.396;2022-08-24T01:53:16;14.73;;;10.43;;
8058;SDS011;4072;42.668;23.396;2022-08-24T01:55:48;12.87;;;10.50;;
8058;SDS011;4072;42.668;23.396;2022-08-24T01:58:18;13.13;;;11.10;;
8058;SDS011;4072;42.668;23.396;2022-08-24T02:00:46;13.00;;;10.93;;
8058;SDS011;4072;42.668;23.396;2022-08-24T02:03:14;13.07;;;11.73;;
8058;SDS011;4072;42.668;23.396;2022-08-24T02:05:44;14.23;;;11.80;;
8058;SDS011;4072;42.668;23.396;2022-08-24T02:08:12;13.23;;;11.43;;
8058;SDS011;4072;42.668;23.396;2022-08-24T02:10:40;13.50;;;11.47;;
8058;SDS011;4072;42.668;23.396;2022-08-24T02:13:23;17.17;;;11.97;;
8058;SDS011;4072;42.668;23.396;2022-08-24T02:15:54;12.43;;;10.93;;
8058;SDS011;4072;42.668;23.396;2022-08-24T02:18:22;17.77;;;12.30;;
8058;SDS011;4072;42.668;23.396;2022-08-24T02:20:50;12.87;;;11.60;;
8058;SDS011;4072;42.668;23.396;2022-08-24T02:23:18;16.40;;;13.40;;
8058;SDS011;4072;42.668;23.396;2022-08-24T02:25:46;15.63;;;13.43;;
8058;SDS011;4072;42.668;23.396;2022-08-24T02:28:15;19.80;;;16.13;;
8058;SDS011;4072;42.668;23.396;2022-08-24T02:30:44;21.47;;;16.77;;
8058;SDS011;4072;42.668;23.396;2022-08-24T02:33:12;22.97;;;18.70;;
8058;SDS011;4072;42.668;23.396;2022-08-24T02:35:41;24.27;;;20.27;;
8058;SDS011;4072;42.668;23.396;2022-08-24T02:38:09;25.83;;;20.73;;
8058;SDS011;4072;42.668;23.396;2022-08-24T02:40:38;26.97;;;22.27;;
8058;SDS011;4072;42.668;23.396;2022-08-24T02:43:06;30.17;;;22.23;;
8058;SDS011;4072;42.668;23.396;2022-08-24T02:45:36;30.83;;;22.83;;
8058;SDS011;4072;42.668;23.396;2022-08-24T02:48:05;33.43;;;23.53;;
8058;SDS011;4072;42.668;23.396;2022-08-24T02:50:36;31.47;;;25.03;;
8058;SDS011;4072;42.668;23.396;2022-08-24T02:53:04;35.73;;;27.03;;
8058;SDS011;4072;42.668;23.396;2022-08-24T02:55:32;36.07;;;27.83;;
8058;SDS011;4072;42.668;23.396;2022-08-24T02:58:00;34.57;;;25.67;;
8058;SDS011;4072;42.668;23.396;2022-08-24T03:00:28;33.37;;;26.50;;
8058;SDS011;4072;42.668;23.396;2022-08-24T03:02:56;35.90;;;27.17;;
8058;SDS011;4072;42.668;23.396;2022-08-24T03:05:26;36.23;;;26.57;;
8058;SDS011;4072;42.668;23.396;2022-08-24T03:07:54;35.63;;;26.13;;
8058;SDS011;4072;42.668;23.396;2022-08-24T03:10:21;34.47;;;25.07;;
8058;SDS011;4072;42.668;23.396;2022-08-24T03:12:49;36.43;;;25.70;;
8058;SDS011;4072;42.668;23.396;2022-08-24T03:15:17;29.97;;;25.20;;
8058;SDS011;4072;42.668;23.396;2022-08-24T03:17:48;31.37;;;24.83;;
8058;SDS011;4072;42.668;23.396;2022-08-24T03:20:17;32.77;;;24.27;;
8058;SDS011;4072;42.668;23.396;2022-08-24T03:22:48;31.87;;;24.20;;
8058;SDS011;4072;42.668;23.396;2022-08-24T03:25:17;32.47;;;24.63;;
8058;SDS011;4072;42.668;23.396;2022-08-24T03:27:45;32.30;;;24.33;;
8058;SDS011;4072;42.668;23.396;2022-08-24T03:30:15;32.47;;;23.97;;
8058;SDS011;4072;42.668;23.396;2022-08-24T03:32:43;29.27;;;23.40;;
8058;SDS011;4072;42.668;23.396;2022-08-24T03:35:12;28.07;;;22.83;;
8058;SDS011;4072;42.668;23.396;2022-08-24T03:37:44;32.23;;;23.63;;
8058;SDS011;4072;42.668;23.396;2022-08-24T03:40:14;29.40;;;22.77;;
8058;SDS011;4072;42.668;23.396;2022-08-24T03:42:49;29.80;;;22.77;;
8058;SDS011;4072;42.668;23.396;2022-08-24T03:45:18;28.53;;;22.00;;
8058;SDS011;4072;42.668;23.396;2022-08-24T03:47:48;23.90;;;20.90;;
8058;SDS011;4072;42.668;23.396;2022-08-24T03:50:18;31.00;;;23.07;;
8058;SDS011;4072;42.668;23.396;2022-08-24T03:52:47;32.90;;;22.53;;
8058;SDS011;4072;42.668;23.396;2022-08-24T03:55:16;26.57;;;21.03;;
8058;SDS011;4072;42.668;23.396;2022-08-24T03:57:44;21.03;;;18.00;;
8058;SDS011;4072;42.668;23.396;2022-08-24T04:00:12;23.60;;;19.33;;
8058;SDS011;4072;42.668;23.396;2022-08-24T04:02:41;19.43;;;16.80;;
8058;SDS011;4072;42.668;23.396;2022-08-24T04:05:10;19.13;;;15.63;;
8058;SDS011;4072;42.668;23.396;2022-08-24T04:07:39;17.63;;;15.77;;
8058;SDS011;4072;42.668;23.396;2022-08-24T04:10:07;17.87;;;15.00;;
8058;SDS011;4072;42.668;23.396;2022-08-24T04:12:36;18.93;;;14.57;;
8058;SDS011;4072;42.668;23.396;2022-08-24T04:15:05;14.40;;;12.87;;
8058;SDS011;4072;42.668;23.396;2022-08-24T04:17:33;18.93;;;14.73;;
8058;SDS011;4072;42.668;23.396;2022-08-24T04:20:01;17.47;;;14.40;;
8058;SDS011;4072;42.668;23.396;2022-08-24T04:22:29;12.00;;;10.53;;
8058;SDS011;4072;42.668;23.396;2022-08-24T04:24:58;13.57;;;12.00;;
8058;SDS011;4072;42.668;23.396;2022-08-24T04:27:26;17.23;;;10.93;;
8058;SDS011;4072;42.668;23.396;2022-08-24T04:29:55;11.70;;;10.60;;
8058;SDS011;4072;42.668;23.396;2022-08-24T04:32:23;13.33;;;10.27;;
8058;SDS011;4072;42.668;23.396;2022-08-24T04:34:51;12.47;;;10.87;;
8058;SDS011;4072;42.668;23.396;2022-08-24T04:37:19;12.40;;;11.07;;
8058;SDS011;4072;42.668;23.396;2022-08-24T04:39:54;21.77;;;12.03;;
8058;SDS011;4072;42.668;23.396;2022-08-24T04:42:22;15.33;;;11.03;;
8058;SDS011;4072;42.668;23.396;2022-08-24T04:44:52;16.60;;;11.57;;
8058;SDS011;4072;42.668;23.396;2022-08-24T04:47:21;14.40;;;10.67;;
8058;SDS011;4072;42.668;23.396;2022-08-24T04:49:49;15.63;;;10.67;;
8058;SDS011;4072;42.668;23.396;2022-08-24T04:52:17;10.80;;;9.67;;
8058;SDS011;4072;42.668;23.396;2022-08-24T04:54:45;13.00;;;10.17;;
8058;SDS011;4072;42.668;23.396;2022-08-24T04:57:13;13.57;;;9.70;;
8058;SDS011;4072;42.668;23.396;2022-08-24T04:59:44;11.80;;;10.53;;
8058;SDS011;4072;42.668;23.396;2022-08-24T05:02:12;11.30;;;10.20;;
8058;SDS011;4072;42.668;23.396;2022-08-24T05:04:41;10.77;;;9.77;;
8058;SDS011;4072;42.668;23.396;2022-08-24T05:07:09;10.57;;;9.23;;
8058;SDS011;4072;42.668;23.396;2022-08-24T05:09:37;10.43;;;9.40;;
8058;SDS011;4072;42.668;23.396;2022-08-24T05:12:06;11.97;;;10.07;;
8058;SDS011;4072;42.668;23.396;2022-08-24T05:14:34;10.60;;;9.30;;
8058;SDS011;4072;42.668;23.396;2022-08-24T05:17:02;14.87;;;10.53;;
8058;SDS011;4072;42.668;23.396;2022-08-24T05:19:34;12.50;;;10.17;;
8058;SDS011;4072;42.668;23.396;2022-08-24T05:22:04;11.37;;;10.00;;
8058;SDS011;4072;42.668;23.396;2022-08-24T05:24:32;10.53;;;9.43;;
8058;SDS011;4072;42.668;23.396;2022-08-24T05:27:00;15.33;;;10.67;;
8058;SDS011;4072;42.668;23.396;2022-08-24T05:29:29;10.83;;;9.57;;
8058;SDS011;4072;42.668;23.396;2022-08-24T05:31:59;12.93;;;9.17;;
8058;SDS011;4072;42.668;23.396;2022-08-24T05:34:29;11.80;;;9.13;;
8058;SDS011;4072;42.668;23.396;2022-08-24T05:36:57;10.43;;;9.33;;
8058;SDS011;4072;42.668;23.396;2022-08-24T05:39:27;13.67;;;9.97;;
8058;SDS011;4072;42.668;23.396;2022-08-24T05:41:56;15.67;;;10.77;;
8058;SDS011;4072;42.668;23.396;2022-08-24T05:44:26;10.17;;;7.53;;
8058;SDS011;4072;42.668;23.396;2022-08-24T05:46:56;8.40;;;7.57;;
8058;SDS011;4072;42.668;23.396;2022-08-24T05:49:25;10.30;;;7.97;;
8058;SDS011;4072;42.668;23.396;2022-08-24T05:51:53;10.10;;;7.30;;
8058;SDS011;4072;42.668;23.396;2022-08-24T05:54:22;10.43;;;7.70;;
8058;SDS011;4072;42.668;23.396;2022-08-24T05:56:55;8.20;;;7.33;;
8058;SDS011;4072;42.668;23.396;2022-08-24T05:59:27;10.00;;;7.50;;
8058;SDS011;4072;42.668;23.396;2022-08-24T06:01:55;14.37;;;8.07;;
8058;SDS011;4072;42.668;23.396;2022-08-24T06:04:24;12.63;;;7.73;;
8058;SDS011;4072;42.668;23.396;2022-08-24T06:06:53;8.23;;;7.07;;
8058;SDS011;4072;42.668;23.396;2022-08-24T06:09:22;10.80;;;7.83;;
8058;SDS011;4072;42.668;23.396;2022-08-24T06:11:49;8.23;;;7.17;;
8058;SDS011;4072;42.668;23.396;2022-08-24T06:14:19;9.13;;;7.77;;
8058;SDS011;4072;42.668;23.396;2022-08-24T06:16:52;6.20;;;5.30;;
8058;SDS011;4072;42.668;23.396;2022-08-24T06:19:21;7.47;;;5.90;;
8058;SDS011;4072;42.668;23.396;2022-08-24T06:21:52;8.43;;;6.10;;
8058;SDS011;4072;42.668;23.396;2022-08-24T06:24:21;6.83;;;6.10;;
8058;SDS011;4072;42.668;23.396;2022-08-24T06:27:10;7.30;;;6.60;;
8058;SDS011;4072;42.668;23.396;2022-08-24T06:29:53;6.90;;;6.20;;
8058;SDS011;4072;42.668;23.396;2022-08-24T06:32:21;7.03;;;5.53;;
8058;SDS011;4072;42.668;23.396;2022-08-24T06:34:53;8.43;;;5.60;;
8058;SDS011;4072;42.668;23.396;2022-08-24T06:37:22;8.87;;;6.50;;
8058;SDS011;4072;42.668;23.396;2022-08-24T06:39:55;7.23;;;6.53;;
8058;SDS011;4072;42.668;23.396;2022-08-24T06:42:24;6.38;;;5.57;;
8058;SDS011;4072;42.668;23.396;2022-08-24T06:44:53;8.73;;;6.38;;
8058;SDS011;4072;42.668;23.396;2022-08-24T06:47:22;7.43;;;6.72;;
8058;SDS011;4072;42.668;23.396;2022-08-24T06:49:49;6.95;;;6.35;;
8058;SDS011;4072;42.668;23.396;2022-08-24T06:52:17;7.03;;;6.43;;
8058;SDS011;4072;42.668;23.396;2022-08-24T06:54:48;10.40;;;5.80;;
8058;SDS011;4072;42.668;23.396;2022-08-24T06:57:18;8.43;;;5.03;;
8058;SDS011;4072;42.668;23.396;2022-08-24T06:59:46;6.25;;;5.38;;
8058;SDS011;4072;42.668;23.396;2022-08-24T07:02:16;6.18;;;5.07;;
8058;SDS011;4072;42.668;23.396;2022-08-24T07:04:44;6.05;;;4.38;;
8058;SDS011;4072;42.668;23.396;2022-08-24T07:07:13;4.50;;;4.10;;
8058;SDS011;4072;42.668;23.396;2022-08-24T07:09:43;4.72;;;4.32;;
8058;SDS011;4072;42.668;23.396;2022-08-24T07:12:11;5.07;;;4.30;;
8058;SDS011;4072;42.668;23.396;2022-08-24T07:14:39;5.38;;;4.63;;
8058;SDS011;4072;42.668;23.396;2022-08-24T07:17:07;6.30;;;4.22;;
8058;SDS011;4072;42.668;23.396;2022-08-24T07:19:37;6.22;;;4.55;;
8058;SDS011;4072;42.668;23.396;2022-08-24T07:22:05;4.63;;;4.22;;
8058;SDS011;4072;42.668;23.396;2022-08-24T07:24:33;4.95;;;4.45;;
8058;SDS011;4072;42.668;23.396;2022-08-24T07:27:01;5.25;;;4.57;;
8058;SDS011;4072;42.668;23.396;2022-08-24T07:29:29;6.38;;;4.45;;
8058;SDS011;4072;42.668;23.396;2022-08-24T07:32:18;5.85;;;5.18;;
8058;SDS011;4072;42.668;23.396;2022-08-24T07:34:48;7.00;;;4.07;;
8058;SDS011;4072;42.668;23.396;2022-08-24T07:37:17;5.00;;;4.35;;
8058;SDS011;4072;42.668;23.396;2022-08-24T07:39:45;4.20;;;3.50;;
8058;SDS011;4072;42.668;23.396;2022-08-24T07:42:13;4.43;;;4.03;;
8058;SDS011;4072;42.668;23.396;2022-08-24T07:44:52;5.22;;;3.92;;
8058;SDS011;4072;42.668;23.396;2022-08-24T07:47:20;4.28;;;3.90;;
8058;SDS011;4072;42.668;23.396;2022-08-24T07:50:09;5.22;;;4.53;;
8058;SDS011;4072;42.668;23.396;2022-08-24T07:52:38;3.92;;;3.60;;
8058;SDS011;4072;42.668;23.396;2022-08-24T07:55:07;3.58;;;3.05;;
8058;SDS011;4072;42.668;23.396;2022-08-24T07:57:37;3.20;;;3.00;;
8058;SDS011;4072;42.668;23.396;2022-08-24T08:00:08;5.38;;;3.75;;
8058;SDS011;4072;42.668;23.396;2022-08-24T08:02:37;3.45;;;3.15;;
8058;SDS011;4072;42.668;23.396;2022-08-24T08:05:06;5.15;;;4.05;;
8058;SDS011;4072;42.668;23.396;2022-08-24T08:07:37;4.00;;;3.70;;
8058;SDS011;4072;42.668;23.396;2022-08-24T08:10:05;4.78;;;3.95;;
8058;SDS011;4072;42.668;23.396;2022-08-24T08:12:33;9.55;;;3.92;;
8058;SDS011;4072;42.668;23.396;2022-08-24T08:15:02;4.75;;;4.30;;
8058;SDS011;4072;42.668;23.396;2022-08-24T08:17:30;4.30;;;3.97;;
8058;SDS011;4072;42.668;23.396;2022-08-24T08:19:58;6.45;;;4.07;;
8058;SDS011;4072;42.668;23.396;2022-08-24T08:22:26;4.50;;;4.00;;
8058;SDS011;4072;42.668;23.396;2022-08-24T08:25:14;3.78;;;3.47;;
8058;SDS011;4072;42.668;23.396;2022-08-24T08:27:43;5.05;;;3.95;;
8058;SDS011;4072;42.668;23.396;2022-08-24T08:30:12;4.10;;;3.70;;
8058;SDS011;4072;42.668;23.396;2022-08-24T08:32:41;3.88;;;3.58;;
8058;SDS011;4072;42.668;23.396;2022-08-24T08:35:10;5.68;;;3.83;;
8058;SDS011;4072;42.668;23.396;2022-08-24T08:37:38;4.15;;;3.75;;
8058;SDS011;4072;42.668;23.396;2022-08-24T08:40:07;4.53;;;3.63;;
8058;SDS011;4072;42.668;23.396;2022-08-24T08:45:27;4.60;;;3.88;;
8058;SDS011;4072;42.668;23.396;2022-08-24T08:50:45;5.32;;;4.10;;
8058;SDS011;4072;42.668;23.396;2022-08-24T08:53:32;4.53;;;4.13;;
8058;SDS011;4072;42.668;23.396;2022-08-24T08:56:08;5.45;;;4.20;;
8058;SDS011;4072;42.668;23.396;2022-08-24T08:58:47;4.25;;;3.83;;
8058;SDS011;4072;42.668;23.396;2022-08-24T09:01:28;5.45;;;3.70;;
8058;SDS011;4072;42.668;23.396;2022-08-24T09:04:03;4.93;;;4.43;;
8058;SDS011;4072;42.668;23.396;2022-08-24T09:09:21;6.78;;;3.50;;
8058;SDS011;4072;42.668;23.396;2022-08-24T09:11:57;4.47;;;3.83;;
8058;SDS011;4072;42.668;23.396;2022-08-24T09:17:27;5.82;;;4.40;;
8058;SDS011;4072;42.668;23.396;2022-08-24T09:20:03;4.57;;;3.95;;
8058;SDS011;4072;42.668;23.396;2022-08-24T09:22:37;5.85;;;4.00;;
8058;SDS011;4072;42.668;23.396;2022-08-24T09:25:07;7.80;;;6.60;;
8058;SDS011;4072;42.668;23.396;2022-08-24T09:27:41;12.60;;;6.22;;
8058;SDS011;4072;42.668;23.396;2022-08-24T09:30:18;4.78;;;4.38;;
8058;SDS011;4072;42.668;23.396;2022-08-24T09:32:56;4.78;;;4.28;;
8058;SDS011;4072;42.668;23.396;2022-08-24T09:35:31;5.22;;;4.38;;
8058;SDS011;4072;42.668;23.396;2022-08-24T09:38:05;6.53;;;4.53;;
8058;SDS011;4072;42.668;23.396;2022-08-24T09:40:36;4.60;;;4.20;;
8058;SDS011;4072;42.668;23.396;2022-08-24T09:43:21;4.22;;;3.92;;
8058;SDS011;4072;42.668;23.396;2022-08-24T09:57:21;6.93;;;5.75;;
8058;SDS011;4072;42.668;23.396;2022-08-24T10:00:14;4.82;;;4.13;;
8058;SDS011;4072;42.668;23.396;2022-08-24T10:02:50;7.10;;;3.97;;
8058;SDS011;4072;42.668;23.396;2022-08-24T10:05:28;5.05;;;4.65;;
8058;SDS011;4072;42.668;23.396;2022-08-24T10:08:05;5.28;;;4.20;;
8058;SDS011;4072;42.668;23.396;2022-08-24T10:10:39;5.25;;;4.30;;
8058;SDS011;4072;42.668;23.396;2022-08-24T10:13:16;5.32;;;4.25;;
8058;SDS011;4072;42.668;23.396;2022-08-24T10:18:39;3.72;;;3.45;;
8058;SDS011;4072;42.668;23.396;2022-08-24T10:21:17;6.03;;;4.57;;
8058;SDS011;4072;42.668;23.396;2022-08-24T10:23:57;7.35;;;4.10;;
8058;SDS011;4072;42.668;23.396;2022-08-24T10:26:30;6.88;;;4.20;;
8058;SDS011;4072;42.668;23.396;2022-08-24T10:31:58;5.03;;;3.95;;
8058;SDS011;4072;42.668;23.396;2022-08-24T10:34:33;5.45;;;4.03;;
8058;SDS011;4072;42.668;23.396;2022-08-24T10:40:08;5.43;;;4.35;;
8058;SDS011;4072;42.668;23.396;2022-08-24T10:42:42;7.95;;;4.47;;
8058;SDS011;4072;42.668;23.396;2022-08-24T10:45:33;4.72;;;4.32;;
8058;SDS011;4072;42.668;23.396;2022-08-24T10:48:14;12.98;;;4.78;;
8058;SDS011;4072;42.668;23.396;2022-08-24T10:50:50;7.80;;;4.55;;
8058;SDS011;4072;42.668;23.396;2022-08-24T10:53:21;6.13;;;4.88;;
8058;SDS011;4072;42.668;23.396;2022-08-24T10:58:41;7.13;;;5.50;;
8058;SDS011;4072;42.668;23.396;2022-08-24T11:01:14;6.35;;;4.57;;
8058;SDS011;4072;42.668;23.396;2022-08-24T11:03:50;7.03;;;4.05;;
8058;SDS011;4072;42.668;23.396;2022-08-24T11:06:19;5.75;;;5.10;;
8058;SDS011;4072;42.668;23.396;2022-08-24T11:08:52;4.85;;;4.30;;
8058;SDS011;4072;42.668;23.396;2022-08-24T11:11:22;6.03;;;3.92;;
8058;SDS011;4072;42.668;23.396;2022-08-24T11:13:52;3.80;;;3.50;;
8058;SDS011;4072;42.668;23.396;2022-08-24T11:16:25;4.32;;;3.97;;
8058;SDS011;4072;42.668;23.396;2022-08-24T11:18:56;4.38;;;3.90;;
8058;SDS011;4072;42.668;23.396;2022-08-24T11:21:35;6.57;;;4.10;;
8058;SDS011;4072;42.668;23.396;2022-08-24T11:24:05;5.47;;;4.35;;
8058;SDS011;4072;42.668;23.396;2022-08-24T11:26:43;6.05;;;4.57;;
8058;SDS011;4072;42.668;23.396;2022-08-24T11:29:18;4.18;;;3.65;;
8058;SDS011;4072;42.668;23.396;2022-08-24T11:31:47;4.60;;;3.80;;
8058;SDS011;4072;42.668;23.396;2022-08-24T11:34:29;8.95;;;5.07;;
8058;SDS011;4072;42.668;23.396;2022-08-24T11:36:58;5.25;;;4.75;;
8058;SDS011;4072;42.668;23.396;2022-08-24T11:39:28;8.95;;;4.75;;
8058;SDS011;4072;42.668;23.396;2022-08-24T11:41:57;4.65;;;4.22;;
8058;SDS011;4072;42.668;23.396;2022-08-24T11:44:33;6.22;;;4.05;;
8058;SDS011;4072;42.668;23.396;2022-08-24T11:47:07;5.25;;;3.85;;
8058;SDS011;4072;42.668;23.396;2022-08-24T11:49:48;8.68;;;4.15;;
8058;SDS011;4072;42.668;23.396;2022-08-24T11:52:23;5.55;;;4.25;;
8058;SDS011;4072;42.668;23.396;2022-08-24T11:54:59;6.13;;;4.43;;
8058;SDS011;4072;42.668;23.396;2022-08-24T11:57:37;6.45;;;4.78;;
8058;SDS011;4072;42.668;23.396;2022-08-24T12:00:15;9.55;;;5.05;;
8058;SDS011;4072;42.668;23.396;2022-08-24T12:02:48;5.57;;;4.93;;
8058;SDS011;4072;42.668;23.396;2022-08-24T12:05:24;5.28;;;4.70;;
8058;SDS011;4072;42.668;23.396;2022-08-24T12:07:59;11.65;;;5.13;;
8058;SDS011;4072;42.668;23.396;2022-08-24T12:10:31;6.43;;;4.82;;
8058;SDS011;4072;42.668;23.396;2022-08-24T12:13:05;7.10;;;5.22;;
8058;SDS011;4072;42.668;23.396;2022-08-24T12:15:39;7.40;;;4.70;;
8058;SDS011;4072;42.668;23.396;2022-08-24T12:18:12;5.10;;;4.60;;
8058;SDS011;4072;42.668;23.396;2022-08-24T12:20:45;7.40;;;4.68;;
8058;SDS011;4072;42.668;23.396;2022-08-24T12:23:15;8.40;;;5.60;;
8058;SDS011;4072;42.668;23.396;2022-08-24T12:25:51;8.15;;;6.00;;
8058;SDS011;4072;42.668;23.396;2022-08-24T12:28:40;7.30;;;6.63;;
8058;SDS011;4072;42.668;23.396;2022-08-24T12:31:11;7.53;;;5.45;;
8058;SDS011;4072;42.668;23.396;2022-08-24T12:33:47;6.45;;;5.47;;
8058;SDS011;4072;42.668;23.396;2022-08-24T12:36:20;6.40;;;5.70;;
8058;SDS011;4072;42.668;23.396;2022-08-24T12:38:51;6.50;;;5.13;;
8058;SDS011;4072;42.668;23.396;2022-08-24T12:41:23;5.55;;;5.00;;
8058;SDS011;4072;42.668;23.396;2022-08-24T12:43:54;8.00;;;4.80;;
8058;SDS011;4072;42.668;23.396;2022-08-24T12:46:25;8.05;;;5.40;;
8058;SDS011;4072;42.668;23.396;2022-08-24T12:48:55;6.47;;;5.45;;
8058;SDS011;4072;42.668;23.396;2022-08-24T12:51:33;7.07;;;5.10;;
8058;SDS011;4072;42.668;23.396;2022-08-24T12:54:12;6.60;;;5.45;;
8058;SDS011;4072;42.668;23.396;2022-08-24T12:56:52;7.80;;;4.95;;
8058;SDS011;4072;42.668;23.396;2022-08-24T12:59:23;6.30;;;4.80;;
8058;SDS011;4072;42.668;23.396;2022-08-24T13:01:57;10.30;;;5.35;;
8058;SDS011;4072;42.668;23.396;2022-08-24T13:04:31;8.48;;;4.70;;
8058;SDS011;4072;42.668;23.396;2022-08-24T13:07:04;6.13;;;5.50;;
8058;SDS011;4072;42.668;23.396;2022-08-24T13:09:34;9.05;;;6.13;;
8058;SDS011;4072;42.668;23.396;2022-08-24T13:14:53;7.88;;;5.43;;
8058;SDS011;4072;42.668;23.396;2022-08-24T13:17:24;6.32;;;5.70;;
8058;SDS011;4072;42.668;23.396;2022-08-24T13:20:17;8.48;;;5.88;;
8058;SDS011;4072;42.668;23.396;2022-08-24T13:22:53;8.73;;;5.63;;
8058;SDS011;4072;42.668;23.396;2022-08-24T13:28:26;7.57;;;6.00;;
8058;SDS011;4072;42.668;23.396;2022-08-24T13:31:02;6.03;;;5.35;;
8058;SDS011;4072;42.668;23.396;2022-08-24T13:33:33;8.50;;;5.72;;
8058;SDS011;4072;42.668;23.396;2022-08-24T13:39:01;7.60;;;5.20;;
8058;SDS011;4072;42.668;23.396;2022-08-24T13:44:50;11.18;;;5.90;;
8058;SDS011;4072;42.668;23.396;2022-08-24T13:47:21;6.82;;;5.57;;
8058;SDS011;4072;42.668;23.396;2022-08-24T13:49:54;8.88;;;5.63;;
8058;SDS011;4072;42.668;23.396;2022-08-24T13:52:31;6.85;;;5.88;;
8058;SDS011;4072;42.668;23.396;2022-08-24T13:57:50;8.00;;;5.78;;
8058;SDS011;4072;42.668;23.396;2022-08-24T14:03:10;9.40;;;6.05;;
8058;SDS011;4072;42.668;23.396;2022-08-24T14:05:41;7.97;;;6.25;;
8058;SDS011;4072;42.668;23.396;2022-08-24T14:08:17;8.93;;;5.85;;
8058;SDS011;4072;42.668;23.396;2022-08-24T14:10:53;7.85;;;5.72;;
8058;SDS011;4072;42.668;23.396;2022-08-24T14:13:29;13.52;;;5.50;;
8058;SDS011;4072;42.668;23.396;2022-08-24T14:16:00;7.25;;;4.95;;
8058;SDS011;4072;42.668;23.396;2022-08-24T14:18:55;10.07;;;5.45;;
8058;SDS011;4072;42.668;23.396;2022-08-24T14:21:33;10.13;;;4.93;;
8058;SDS011;4072;42.668;23.396;2022-08-24T14:24:03;7.55;;;5.07;;
8058;SDS011;4072;42.668;23.396;2022-08-24T14:29:27;9.98;;;6.03;;
8058;SDS011;4072;42.668;23.396;2022-08-24T14:34:46;10.32;;;5.68;;
8058;SDS011;4072;42.668;23.396;2022-08-24T14:37:19;13.13;;;5.90;;
8058;SDS011;4072;42.668;23.396;2022-08-24T14:39:50;12.57;;;6.22;;
8058;SDS011;4072;42.668;23.396;2022-08-24T14:42:20;8.27;;;4.95;;
8058;SDS011;4072;42.668;23.396;2022-08-24T14:44:59;8.45;;;5.22;;
8058;SDS011;4072;42.668;23.396;2022-08-24T14:47:35;9.05;;;5.68;;
8058;SDS011;4072;42.668;23.396;2022-08-24T14:50:07;7.75;;;5.70;;
8058;SDS011;4072;42.668;23.396;2022-08-24T14:52:42;12.50;;;6.35;;
8058;SDS011;4072;42.668;23.396;2022-08-24T14:55:11;9.20;;;5.97;;
8058;SDS011;4072;42.668;23.396;2022-08-24T14:57:46;12.35;;;6.20;;
8058;SDS011;4072;42.668;23.396;2022-08-24T15:00:19;8.80;;;5.28;;
8058;SDS011;4072;42.668;23.396;2022-08-24T15:05:48;8.13;;;5.30;;
8058;SDS011;4072;42.668;23.396;2022-08-24T15:08:39;10.50;;;6.10;;
8058;SDS011;4072;42.668;23.396;2022-08-24T15:11:11;8.07;;;5.47;;
8058;SDS011;4072;42.668;23.396;2022-08-24T15:13:43;9.75;;;5.35;;
8058;SDS011;4072;42.668;23.396;2022-08-24T15:16:15;12.98;;;6.03;;
8058;SDS011;4072;42.668;23.396;2022-08-24T15:18:46;9.32;;;5.55;;
8058;SDS011;4072;42.668;23.396;2022-08-24T15:21:21;12.25;;;6.65;;
8058;SDS011;4072;42.668;23.396;2022-08-24T15:24:02;20.25;;;7.55;;
8058;SDS011;4072;42.668;23.396;2022-08-24T15:26:40;14.27;;;6.32;;
8058;SDS011;4072;42.668;23.396;2022-08-24T15:29:12;12.57;;;6.95;;
8058;SDS011;4072;42.668;23.396;2022-08-24T15:31:42;8.57;;;5.88;;
8058;SDS011;4072;42.668;23.396;2022-08-24T15:34:30;10.63;;;6.93;;
8058;SDS011;4072;42.668;23.396;2022-08-24T15:36:59;12.98;;;7.35;;
8058;SDS011;4072;42.668;23.396;2022-08-24T15:39:27;12.98;;;6.57;;
8058;SDS011;4072;42.668;23.396;2022-08-24T15:41:56;16.17;;;7.07;;
8058;SDS011;4072;42.668;23.396;2022-08-24T15:44:27;15.68;;;6.50;;
8058;SDS011;4072;42.668;23.396;2022-08-24T15:46:57;15.52;;;6.70;;
8058;SDS011;4072;42.668;23.396;2022-08-24T15:49:26;12.27;;;6.57;;
8058;SDS011;4072;42.668;23.396;2022-08-24T15:51:57;12.63;;;6.85;;
8058;SDS011;4072;42.668;23.396;2022-08-24T15:54:27;15.23;;;7.13;;
8058;SDS011;4072;42.668;23.396;2022-08-24T15:56:57;13.40;;;6.57;;
8058;SDS011;4072;42.668;23.396;2022-08-24T15:59:30;14.95;;;6.75;;
8058;SDS011;4072;42.668;23.396;2022-08-24T16:05:00;14.23;;;6.55;;
8058;SDS011;4072;42.668;23.396;2022-08-24T16:07:29;21.48;;;8.40;;
8058;SDS011;4072;42.668;23.396;2022-08-24T16:10:05;19.85;;;8.52;;
8058;SDS011;4072;42.668;23.396;2022-08-24T16:12:34;18.20;;;7.30;;
8058;SDS011;4072;42.668;23.396;2022-08-24T16:15:07;18.00;;;7.28;;
8058;SDS011;4072;42.668;23.396;2022-08-24T16:17:37;17.77;;;7.22;;
8058;SDS011;4072;42.668;23.396;2022-08-24T16:20:10;17.85;;;7.43;;